Time;durP1;ratioP1;P1;durP2;ratioP2;P2;SDS_P1;SDS_P2;PMS_P1;PMS_P2;Temp;Humidity;BMP_temperature;BMP_pressure;BME280_temperature;BME280_humidity;BME280_pressure;Samples;Min_cycle;Max_cycle;Signal;HPM_P1;HPM_P2
2023/09/14 00:00:50;;;;;;;0.73;0.60;;;12.30;99.90;;;;;;4990330;28;20063;-65
2023/09/14 00:03:16;;;;;;;5.30;1.00;;;12.30;99.90;;;;;;4993035;28;20053;-66
2023/09/14 00:05:43;;;;;;;7.40;1.30;;;12.30;99.90;;;;;;5000756;28;20038;-66
2023/09/14 00:08:10;;;;;;;7.28;1.30;;;12.30;99.90;;;;;;5013137;28;20057;-66
2023/09/14 00:10:36;;;;;;;4.10;1.33;;;12.30;99.90;;;;;;5024297;28;20280;-66
2023/09/14 00:13:03;;;;;;;2.70;1.10;;;12.30;99.90;;;;;;5009431;28;20089;-66
2023/09/14 00:15:29;;;;;;;3.13;1.27;;;12.30;99.90;;;;;;5015306;28;20050;-65
2023/09/14 00:17:55;;;;;;;3.22;1.38;;;12.30;99.90;;;;;;5018709;28;20045;-65
2023/09/14 00:20:23;;;;;;;1.70;1.13;;;12.30;99.90;;;;;;5000102;28;20512;-66
2023/09/14 00:22:53;;;;;;;4.22;1.20;;;12.30;99.90;;;;;;4990510;28;20155;-66
2023/09/14 00:25:22;;;;;;;2.97;1.20;;;12.30;99.90;;;;;;5014893;28;20045;-66
2023/09/14 00:27:49;;;;;;;2.15;1.13;;;12.40;99.90;;;;;;5017366;28;20088;-66
2023/09/14 00:30:15;;;;;;;4.00;1.35;;;12.40;99.90;;;;;;5015952;28;20468;-66
2023/09/14 00:32:42;;;;;;;6.00;1.70;;;12.40;99.90;;;;;;4992268;28;20584;-66
2023/09/14 00:35:09;;;;;;;5.75;1.35;;;12.40;99.90;;;;;;5020531;28;20124;-66
2023/09/14 00:37:35;;;;;;;3.65;1.25;;;12.40;99.90;;;;;;5008497;28;20057;-65
2023/09/14 00:40:06;;;;;;;2.80;1.50;;;12.40;99.90;;;;;;5027871;28;20051;-66
2023/09/14 00:42:41;;;;;;;2.70;1.50;;;12.40;99.90;;;;;;5018839;28;20046;-66
2023/09/14 00:45:08;;;;;;;4.28;1.15;;;12.40;99.90;;;;;;4989573;28;20053;-66
2023/09/14 00:47:35;;;;;;;6.20;2.17;;;12.50;99.90;;;;;;5008707;28;20069;-66
2023/09/14 00:50:03;;;;;;;6.90;1.50;;;12.50;99.90;;;;;;5027186;28;20410;-66
2023/09/14 00:52:29;;;;;;;2.15;1.15;;;12.50;99.90;;;;;;5006706;28;20384;-66
2023/09/14 00:54:55;;;;;;;3.03;1.58;;;12.50;99.90;;;;;;5016500;28;20100;-66
2023/09/14 00:57:21;;;;;;;3.63;1.40;;;12.60;99.90;;;;;;5009403;28;20049;-66
2023/09/14 00:59:47;;;;;;;6.15;1.38;;;12.60;99.90;;;;;;5026000;28;20049;-66
2023/09/14 01:02:14;;;;;;;5.40;1.50;;;12.60;99.90;;;;;;4981061;28;20037;-66
2023/09/14 01:04:41;;;;;;;4.70;1.55;;;12.60;99.90;;;;;;4997325;28;20504;-65
2023/09/14 01:07:06;;;;;;;2.20;1.10;;;12.60;99.90;;;;;;5026618;28;20561;-66
2023/09/14 01:09:33;;;;;;;4.53;1.25;;;12.70;99.90;;;;;;5008547;28;20045;-65
2023/09/14 01:11:59;;;;;;;4.07;1.60;;;12.70;99.90;;;;;;5008347;28;20071;-66
2023/09/14 01:14:47;;;;;;;5.03;1.15;;;12.70;99.90;;;;;;4997760;28;20491;-66
2023/09/14 01:17:28;;;;;;;5.32;1.35;;;12.70;99.90;;;;;;4988224;28;20046;-66
2023/09/14 01:20:19;;;;;;;5.47;1.35;;;12.70;99.90;;;;;;4994187;28;20037;-65
2023/09/14 01:23:04;;;;;;;3.95;1.10;;;12.80;99.90;;;;;;4988026;28;20083;-65
2023/09/14 01:25:45;;;;;;;3.13;1.02;;;12.80;99.90;;;;;;5007254;28;20057;-66
2023/09/14 01:28:12;;;;;;;1.75;1.20;;;12.80;99.90;;;;;;5003596;28;20128;-65
2023/09/14 01:30:38;;;;;;;1.02;0.90;;;12.80;99.90;;;;;;5013899;28;20049;-66
2023/09/14 01:33:06;;;;;;;3.63;1.20;;;12.80;99.90;;;;;;5006897;28;20057;-66
2023/09/14 01:35:46;;;;;;;7.25;1.20;;;12.80;99.90;;;;;;5025700;28;20056;-66
2023/09/14 01:38:13;;;;;;;2.60;1.20;;;12.80;99.90;;;;;;5022196;28;20051;-66
2023/09/14 01:40:42;;;;;;;3.60;1.20;;;12.80;99.90;;;;;;5005962;28;20049;-66
2023/09/14 01:43:08;;;;;;;2.95;1.40;;;12.90;99.90;;;;;;4987500;28;20046;-66
2023/09/14 01:45:34;;;;;;;2.47;1.20;;;12.90;99.90;;;;;;5005642;28;20041;-66
2023/09/14 01:48:00;;;;;;;3.88;1.60;;;12.90;99.90;;;;;;4987952;28;20439;-66
2023/09/14 01:50:26;;;;;;;3.30;1.15;;;12.90;99.90;;;;;;5006127;28;20048;-65
2023/09/14 01:52:55;;;;;;;6.07;1.40;;;12.90;99.90;;;;;;5004918;28;20467;-65
2023/09/14 01:55:20;;;;;;;3.35;1.48;;;12.90;99.90;;;;;;5005123;28;20072;-65
2023/09/14 01:57:46;;;;;;;1.85;1.17;;;12.90;99.90;;;;;;5006038;28;20045;-65
2023/09/14 02:00:12;;;;;;;3.75;1.55;;;12.90;99.90;;;;;;5024762;28;20041;-66
2023/09/14 02:02:38;;;;;;;4.72;1.10;;;12.90;99.90;;;;;;5001817;28;20067;-66
2023/09/14 02:05:04;;;;;;;2.00;1.45;;;12.90;99.90;;;;;;5023202;28;20046;-66
2023/09/14 02:07:30;;;;;;;2.50;1.25;;;12.90;99.90;;;;;;5002335;28;20034;-65
2023/09/14 02:09:56;;;;;;;3.80;1.02;;;12.90;99.90;;;;;;5005482;28;20053;-65
2023/09/14 02:12:21;;;;;;;1.85;1.17;;;12.90;99.90;;;;;;5004344;28;20054;-65
2023/09/14 02:14:47;;;;;;;3.50;1.23;;;12.90;99.90;;;;;;5005919;28;20045;-65
2023/09/14 02:17:13;;;;;;;4.35;1.45;;;12.90;99.90;;;;;;5004621;28;20077;-65
2023/09/14 02:19:39;;;;;;;4.90;1.40;;;12.90;99.90;;;;;;5006057;28;20084;-66
2023/09/14 02:22:05;;;;;;;2.05;1.27;;;12.90;99.90;;;;;;5003942;28;20045;-65
2023/09/14 02:24:30;;;;;;;5.28;1.30;;;12.80;99.90;;;;;;4988750;28;20038;-66
2023/09/14 02:26:56;;;;;;;2.78;1.02;;;12.90;99.90;;;;;;4998764;28;20563;-65
2023/09/14 02:29:21;;;;;;;4.00;1.10;;;12.90;99.90;;;;;;5005920;28;20132;-65
2023/09/14 02:31:47;;;;;;;2.47;1.15;;;12.90;99.90;;;;;;5005425;28;20503;-65
2023/09/14 02:34:13;;;;;;;3.28;1.23;;;12.90;99.90;;;;;;5005313;28;20089;-65
2023/09/14 02:36:39;;;;;;;2.28;1.00;;;12.90;99.90;;;;;;5003828;28;20539;-66
2023/09/14 02:39:05;;;;;;;3.97;1.02;;;12.80;99.90;;;;;;5004975;28;20038;-66
2023/09/14 02:41:31;;;;;;;3.58;1.10;;;12.80;99.90;;;;;;5006377;28;20400;-66
2023/09/14 02:43:57;;;;;;;6.40;1.30;;;12.90;99.90;;;;;;5004492;28;20089;-66
2023/09/14 02:46:22;;;;;;;3.85;1.10;;;12.90;99.90;;;;;;5004817;28;20093;-65
2023/09/14 02:48:48;;;;;;;5.60;1.20;;;12.90;99.90;;;;;;5004599;28;20046;-66
2023/09/14 02:51:14;;;;;;;5.22;1.30;;;12.80;99.90;;;;;;4987955;28;20137;-65
2023/09/14 02:53:40;;;;;;;3.92;0.80;;;12.90;99.90;;;;;;5005796;28;20042;-65
2023/09/14 02:56:10;;;;;;;6.82;1.25;;;12.80;99.90;;;;;;5005043;28;20108;-65
2023/09/14 02:58:36;;;;;;;3.55;1.17;;;12.80;99.90;;;;;;4997118;28;20115;-65
2023/09/14 03:01:09;;;;;;;3.47;1.10;;;12.80;99.90;;;;;;5002541;28;20054;-65
2023/09/14 03:03:39;;;;;;;2.13;0.98;;;12.80;99.90;;;;;;5005763;28;20158;-65
2023/09/14 03:06:05;;;;;;;;;;;12.80;99.90;;;;;;5005220;28;20100;-65
2023/09/14 03:08:31;;;;;;;4.07;1.08;;;12.80;99.90;;;;;;4987124;28;19932;-64
2023/09/14 03:10:57;;;;;;;3.03;1.08;;;12.80;99.90;;;;;;5003749;28;20053;-65
2023/09/14 03:13:23;;;;;;;2.40;1.00;;;12.80;99.90;;;;;;5004983;28;20046;-65
2023/09/14 03:15:57;;;;;;;1.25;0.90;;;12.70;99.90;;;;;;5005310;28;20045;-64
2023/09/14 03:18:23;;;;;;;4.70;1.00;;;12.70;99.90;;;;;;4989328;28;20609;-64
2023/09/14 03:20:54;;;;;;;2.55;0.90;;;12.70;99.90;;;;;;5008768;28;20065;-64
2023/09/14 03:23:21;;;;;;;3.58;1.00;;;12.60;99.90;;;;;;5008686;28;20057;-64
2023/09/14 03:25:48;;;;;;;1.20;0.93;;;12.60;99.90;;;;;;5007710;28;20053;-64
2023/09/14 03:28:17;;;;;;;2.33;1.10;;;12.60;99.90;;;;;;4995460;28;20046;-64
2023/09/14 03:30:44;;;;;;;1.55;0.93;;;12.50;99.90;;;;;;5007488;28;20057;-64
2023/09/14 03:33:10;;;;;;;6.78;1.20;;;12.50;99.90;;;;;;4987760;28;20066;-64
2023/09/14 03:35:36;;;;;;;4.38;0.90;;;12.50;99.90;;;;;;4988314;28;20089;-64
2023/09/14 03:38:03;;;;;;;3.15;1.02;;;12.40;99.90;;;;;;4987890;28;20078;-65
2023/09/14 03:40:29;;;;;;;1.73;0.77;;;12.40;99.90;;;;;;4987942;28;20516;-65
2023/09/14 03:42:54;;;;;;;1.13;0.90;;;12.30;99.90;;;;;;4988535;28;20113;-65
2023/09/14 03:45:20;;;;;;;2.53;1.10;;;12.30;99.90;;;;;;4988396;28;20042;-65
2023/09/14 03:47:49;;;;;;;5.40;1.13;;;12.20;99.90;;;;;;4988407;28;20061;-65
2023/09/14 03:50:15;;;;;;;2.88;0.88;;;12.20;99.90;;;;;;4989363;28;20047;-65
2023/09/14 03:52:40;;;;;;;4.60;1.08;;;12.10;99.90;;;;;;4987740;28;20487;-65
2023/09/14 03:55:07;;;;;;;2.45;0.98;;;12.10;99.90;;;;;;4987427;28;20077;-65
2023/09/14 03:57:32;;;;;;;2.90;1.10;;;12.00;99.90;;;;;;4988383;28;20058;-65
2023/09/14 03:59:58;;;;;;;1.90;0.70;;;12.00;99.90;;;;;;4988202;28;20081;-65
2023/09/14 04:02:24;;;;;;;2.03;1.25;;;12.00;99.90;;;;;;4987692;28;20042;-64
2023/09/14 04:04:50;;;;;;;3.38;1.00;;;11.90;99.90;;;;;;4964139;28;20046;-64
2023/09/14 04:07:16;;;;;;;2.28;0.80;;;11.90;99.90;;;;;;4987589;28;20050;-64
2023/09/14 04:09:43;;;;;;;4.38;0.90;;;11.90;99.90;;;;;;4986413;28;20038;-65
2023/09/14 04:12:09;;;;;;;1.67;1.00;;;11.90;99.90;;;;;;4985874;28;20117;-65
2023/09/14 04:14:35;;;;;;;3.15;1.17;;;11.80;99.90;;;;;;4987248;28;20042;-65
2023/09/14 04:17:01;;;;;;;3.17;0.82;;;11.80;99.90;;;;;;4970823;28;20054;-65
2023/09/14 04:19:28;;;;;;;4.20;1.27;;;11.80;99.90;;;;;;4986573;28;20449;-65
2023/09/14 04:21:54;;;;;;;1.20;0.70;;;11.70;99.90;;;;;;4980541;28;20266;-65
2023/09/14 04:24:20;;;;;;;3.65;1.30;;;11.70;99.90;;;;;;4982798;28;20077;-65
2023/09/14 04:26:47;;;;;;;3.28;0.98;;;11.70;99.90;;;;;;4986527;28;20129;-65
2023/09/14 04:29:13;;;;;;;4.13;1.20;;;11.60;99.90;;;;;;4988007;28;20109;-65
2023/09/14 04:31:40;;;;;;;1.13;0.90;;;11.60;99.90;;;;;;4986726;28;20053;-65
2023/09/14 04:34:07;;;;;;;3.00;1.00;;;11.60;99.90;;;;;;5005925;28;20279;-65
2023/09/14 04:36:34;;;;;;;4.30;1.02;;;11.50;99.90;;;;;;4989140;28;20046;-65
2023/09/14 04:39:06;;;;;;;1.85;0.80;;;11.50;99.90;;;;;;5009460;28;20095;-65
2023/09/14 04:41:31;;;;;;;3.80;1.15;;;11.50;99.90;;;;;;5021890;28;20446;-64
2023/09/14 04:43:57;;;;;;;0.80;0.80;;;11.40;99.90;;;;;;4990693;28;20119;-64
2023/09/14 04:46:23;;;;;;;4.18;0.95;;;11.40;99.90;;;;;;5007971;28;20058;-65
2023/09/14 04:48:49;;;;;;;1.45;0.90;;;11.30;99.90;;;;;;5006656;28;20488;-64
2023/09/14 04:51:15;;;;;;;2.92;1.10;;;11.30;99.90;;;;;;5006409;28;20046;-64
2023/09/14 04:53:41;;;;;;;1.15;0.93;;;11.30;99.90;;;;;;5005574;28;20084;-64
2023/09/14 04:56:07;;;;;;;1.58;0.90;;;11.30;99.90;;;;;;5006017;28;20119;-65
2023/09/14 04:58:33;;;;;;;4.40;1.00;;;11.30;99.90;;;;;;5004563;28;20535;-64
2023/09/14 05:00:59;;;;;;;0.77;0.65;;;11.20;99.90;;;;;;4999046;28;20048;-65
2023/09/14 05:03:25;;;;;;;3.45;0.95;;;11.10;99.90;;;;;;4989212;28;20046;-65
2023/09/14 05:05:53;;;;;;;1.98;1.00;;;11.10;99.90;;;;;;5006419;28;20128;-64
2023/09/14 05:08:20;;;;;;;1.95;0.93;;;11.10;99.90;;;;;;5005808;28;20046;-64
2023/09/14 05:10:49;;;;;;;2.90;0.88;;;11.10;99.90;;;;;;5002631;28;20571;-65
2023/09/14 05:13:15;;;;;;;4.38;1.20;;;11.10;99.90;;;;;;5006980;28;20821;-64
2023/09/14 05:15:41;;;;;;;4.18;1.45;;;11.00;99.90;;;;;;5006214;28;20523;-65
2023/09/14 05:18:06;;;;;;;2.05;0.80;;;11.10;99.90;;;;;;5006660;28;20077;-64
2023/09/14 05:20:32;;;;;;;1.30;0.95;;;11.00;99.90;;;;;;5007063;28;20542;-65
2023/09/14 05:22:58;;;;;;;1.88;1.00;;;11.00;99.90;;;;;;4990062;28;20145;-65
2023/09/14 05:25:25;;;;;;;2.70;0.90;;;11.00;99.90;;;;;;5006906;28;20046;-64
2023/09/14 05:27:51;;;;;;;2.20;0.90;;;11.00;99.90;;;;;;5005300;28;20133;-65
2023/09/14 05:30:21;;;;;;;4.97;0.98;;;11.00;99.90;;;;;;5007022;28;20152;-64
2023/09/14 05:32:47;;;;;;;2.30;1.27;;;11.00;99.90;;;;;;4990286;28;20094;-65
2023/09/14 05:35:13;;;;;;;2.47;1.30;;;11.10;99.90;;;;;;5006605;28;20463;-65
2023/09/14 05:37:39;;;;;;;2.15;1.00;;;11.10;99.90;;;;;;4972502;28;20153;-65
2023/09/14 05:40:12;;;;;;;2.10;1.30;;;11.10;99.90;;;;;;5005300;28;20058;-65
2023/09/14 05:42:41;;;;;;;1.95;0.98;;;11.10;99.90;;;;;;5006419;28;20050;-65
2023/09/14 05:45:09;;;;;;;1.90;1.00;;;11.10;99.90;;;;;;5004089;28;20110;-65
2023/09/14 05:47:35;;;;;;;1.27;0.88;;;11.10;99.90;;;;;;4992240;28;20503;-65
2023/09/14 05:50:01;;;;;;;5.28;1.17;;;11.10;99.90;;;;;;5005421;28;20104;-65
2023/09/14 05:52:27;;;;;;;10.57;1.20;;;11.00;99.90;;;;;;5006167;28;20395;-64
2023/09/14 05:54:53;;;;;;;2.90;1.52;;;11.10;99.90;;;;;;5005995;28;20064;-65
2023/09/14 05:57:18;;;;;;;5.53;0.93;;;11.10;99.90;;;;;;5005337;28;20049;-65
2023/09/14 05:59:44;;;;;;;3.20;1.00;;;11.10;99.90;;;;;;5006528;28;20038;-65
2023/09/14 06:02:10;;;;;;;2.88;1.10;;;11.20;99.90;;;;;;5004886;28;20046;-65
2023/09/14 06:04:39;;;;;;;8.52;1.08;;;11.20;99.90;;;;;;5006572;28;20132;-65
2023/09/14 06:07:05;;;;;;;4.38;1.17;;;11.30;99.90;;;;;;5004086;28;20037;-65
2023/09/14 06:09:31;;;;;;;2.80;1.00;;;11.30;99.90;;;;;;5005962;28;20097;-65
2023/09/14 06:11:57;;;;;;;2.63;0.98;;;11.40;99.90;;;;;;5003856;28;20052;-65
2023/09/14 06:14:23;;;;;;;4.13;1.25;;;11.40;99.90;;;;;;5004195;28;20049;-65
2023/09/14 06:16:49;;;;;;;5.95;3.30;;;11.50;99.90;;;;;;5005590;28;20664;-65
2023/09/14 06:19:15;;;;;;;4.03;2.13;;;11.60;99.90;;;;;;5004980;28;20406;-65
2023/09/14 06:21:40;;;;;;;2.97;1.52;;;11.60;99.90;;;;;;5006217;28;20110;-67
2023/09/14 06:24:06;;;;;;;3.20;1.45;;;11.70;99.90;;;;;;5005143;28;20492;-65
2023/09/14 06:26:32;;;;;;;3.53;1.90;;;11.80;99.90;;;;;;4997813;28;20837;-65
2023/09/14 06:28:58;;;;;;;4.22;1.27;;;11.90;99.90;;;;;;5005604;28;20177;-65
2023/09/14 06:31:23;;;;;;;5.88;1.35;;;11.90;99.90;;;;;;5005608;28;20507;-65
2023/09/14 06:33:50;;;;;;;5.00;1.30;;;12.10;99.90;;;;;;5014615;28;20519;-65
2023/09/14 06:36:18;;;;;;;2.25;0.80;;;12.20;99.90;;;;;;5005021;28;20041;-65
2023/09/14 06:38:48;;;;;;;6.40;1.08;;;12.40;99.90;;;;;;4999897;28;20037;-64
2023/09/14 06:41:15;;;;;;;1.95;1.20;;;12.60;99.90;;;;;;5004369;28;20050;-64
2023/09/14 06:43:42;;;;;;;8.70;1.73;;;12.80;99.90;;;;;;5005111;28;20053;-64
2023/09/14 06:46:09;;;;;;;4.88;1.30;;;13.00;99.90;;;;;;5011581;28;20080;-64
2023/09/14 06:48:35;;;;;;;2.22;0.95;;;13.20;99.90;;;;;;5005400;28;20038;-64
2023/09/14 06:51:01;;;;;;;3.38;1.40;;;13.40;99.90;;;;;;4997420;28;20054;-64
2023/09/14 06:53:27;;;;;;;7.03;1.38;;;13.60;99.90;;;;;;5009916;28;20045;-64
2023/09/14 06:55:52;;;;;;;3.45;1.30;;;13.80;99.90;;;;;;4995418;28;20056;-64
2023/09/14 06:58:18;;;;;;;2.90;1.40;;;14.00;99.90;;;;;;4990442;28;20050;-64
2023/09/14 07:00:45;;;;;;;3.03;1.33;;;14.10;99.90;;;;;;5007987;28;20422;-64
2023/09/14 07:03:10;;;;;;;6.35;1.60;;;14.30;99.90;;;;;;5007011;28;20555;-64
2023/09/14 07:05:37;;;;;;;3.80;1.10;;;14.50;99.90;;;;;;5016442;28;20046;-64
2023/09/14 07:08:03;;;;;;;2.85;1.15;;;14.70;99.90;;;;;;5008386;28;20077;-64
2023/09/14 07:10:33;;;;;;;2.17;1.02;;;14.80;99.90;;;;;;4991164;28;20057;-64
2023/09/14 07:12:58;;;;;;;1.50;0.90;;;15.00;99.90;;;;;;4999184;28;20117;-64
2023/09/14 07:15:24;;;;;;;2.67;1.15;;;15.20;99.90;;;;;;5007773;28;20173;-64
2023/09/14 07:17:50;;;;;;;10.32;1.88;;;15.30;99.90;;;;;;5009487;28;20042;-64
2023/09/14 07:20:16;;;;;;;5.80;1.08;;;15.60;99.90;;;;;;5008436;28;20049;-64
2023/09/14 07:22:41;;;;;;;5.78;1.08;;;15.70;99.90;;;;;;4999937;28;20093;-64
2023/09/14 07:25:08;;;;;;;3.78;1.05;;;15.90;99.90;;;;;;5006988;28;20056;-64
2023/09/14 07:27:36;;;;;;;6.25;0.90;;;16.10;99.90;;;;;;4986806;28;20099;-64
2023/09/14 07:30:02;;;;;;;2.95;0.98;;;16.30;99.90;;;;;;5006242;28;20783;-64
2023/09/14 07:32:28;;;;;;;2.50;0.93;;;16.50;99.90;;;;;;5007079;28;20064;-64
2023/09/14 07:34:57;;;;;;;10.40;0.98;;;16.70;99.90;;;;;;5009036;28;20049;-64
2023/09/14 07:37:23;;;;;;;3.38;0.80;;;16.80;99.90;;;;;;5008457;28;20042;-65
2023/09/14 07:39:49;;;;;;;2.72;0.80;;;17.00;99.80;;;;;;4991562;28;20128;-64
2023/09/14 07:42:14;;;;;;;3.17;0.90;;;17.20;96.90;;;;;;5007469;28;20125;-64
2023/09/14 07:44:40;;;;;;;2.83;0.75;;;17.30;90.20;;;;;;4974760;28;20053;-64
2023/09/14 07:47:06;;;;;;;3.28;1.10;;;17.40;76.70;;;;;;5008720;28;20046;-64
2023/09/14 07:49:31;;;;;;;3.33;0.80;;;17.50;87.40;;;;;;5014443;28;20504;-64
2023/09/14 07:51:57;;;;;;;4.82;0.90;;;17.60;82.60;;;;;;5003777;28;20054;-64
2023/09/14 07:54:23;;;;;;;2.72;0.90;;;17.70;59.20;;;;;;4989689;28;20472;-64
2023/09/14 07:56:49;;;;;;;1.63;0.52;;;17.80;62.10;;;;;;5007068;28;20050;-65
2023/09/14 07:59:14;;;;;;;3.22;0.80;;;17.90;67.00;;;;;;4988294;28;20038;-64
2023/09/14 08:01:40;;;;;;;3.20;0.70;;;17.90;52.90;;;;;;4990096;28;20045;-64
2023/09/14 08:04:06;;;;;;;5.68;0.90;;;18.00;38.70;;;;;;5005600;28;20480;-65
2023/09/14 08:06:33;;;;;;;2.17;0.60;;;18.00;23.70;;;;;;5005872;28;20435;-64
2023/09/14 08:08:59;;;;;;;1.55;0.68;;;18.10;24.40;;;;;;5005575;28;20747;-64
2023/09/14 08:11:27;;;;;;;1.27;0.85;;;18.10;1.00;;;;;;5005950;28;20100;-64
2023/09/14 08:13:53;;;;;;;2.50;0.75;;;18.20;3.40;;;;;;4988706;28;20093;-65
2023/09/14 08:16:19;;;;;;;5.15;0.80;;;18.30;4.20;;;;;;4995254;28;20049;-64
2023/09/14 08:18:45;;;;;;;2.10;0.63;;;18.40;1.00;;;;;;4973406;28;20119;-64
2023/09/14 08:21:11;;;;;;;1.63;0.68;;;18.50;1.00;;;;;;5007104;28;20046;-64
2023/09/14 08:23:37;;;;;;;1.35;0.50;;;18.60;1.00;;;;;;4989009;28;20109;-64
2023/09/14 08:26:06;;;;;;;2.05;0.80;;;18.70;1.00;;;;;;5005749;28;20046;-64
2023/09/14 08:28:32;;;;;;;3.80;0.88;;;18.70;1.00;;;;;;5009967;28;20435;-64
2023/09/14 08:30:58;;;;;;;2.90;0.93;;;18.70;1.00;;;;;;5007125;28;20042;-64
2023/09/14 08:33:24;;;;;;;2.88;0.90;;;18.80;1.00;;;;;;5004503;28;20398;-64
2023/09/14 08:35:50;;;;;;;2.10;0.60;;;18.80;1.00;;;;;;5004367;28;20050;-64
2023/09/14 08:38:16;;;;;;;0.93;0.50;;;18.80;1.00;;;;;;4987446;28;20562;-64
2023/09/14 08:40:43;;;;;;;2.65;0.70;;;18.70;1.00;;;;;;4994203;28;20141;-64
2023/09/14 08:43:12;;;;;;;3.88;0.90;;;18.70;1.00;;;;;;4991880;28;20050;-64
2023/09/14 08:45:39;;;;;;;4.30;0.70;;;18.60;1.00;;;;;;5009741;28;20118;-64
2023/09/14 08:48:05;;;;;;;5.85;0.45;;;18.50;1.00;;;;;;5007148;28;20050;-64
2023/09/14 08:50:32;;;;;;;6.18;1.20;;;18.40;1.00;;;;;;5007053;28;20041;-64
2023/09/14 08:52:59;;;;;;;6.38;0.80;;;18.20;1.00;;;;;;5007363;28;20558;-64
2023/09/14 08:55:29;;;;;;;1.85;0.60;;;18.10;1.00;;;;;;4985936;28;20042;-64
2023/09/14 08:57:56;;;;;;;2.10;1.00;;;18.00;1.00;;;;;;5004590;28;20097;-64
2023/09/14 09:00:26;;;;;;;3.00;0.73;;;17.90;1.00;;;;;;5005980;28;20153;-64
2023/09/14 09:02:54;;;;;;;4.22;0.60;;;17.90;1.00;;;;;;4988598;28;20057;-64
2023/09/14 09:05:21;;;;;;;7.05;0.80;;;17.90;1.00;;;;;;5006656;28;20072;-64
2023/09/14 09:07:48;;;;;;;4.22;1.10;;;17.90;1.00;;;;;;5006461;28;20049;-64
2023/09/14 09:10:21;;;;;;;3.30;0.60;;;18.00;1.00;;;;;;5006982;28;20103;-64
2023/09/14 09:12:52;;;;;;;2.97;0.80;;;18.20;1.00;;;;;;5004435;28;20518;-64
2023/09/14 09:15:17;;;;;;;0.93;0.57;;;18.30;1.00;;;;;;4990879;28;20099;-63
2023/09/14 09:17:44;;;;;;;1.02;0.45;;;18.50;1.00;;;;;;5005274;28;20046;-64
2023/09/14 09:20:23;;;;;;;1.50;0.55;;;18.70;1.00;;;;;;5006628;28;20042;-64
2023/09/14 09:22:55;;;;;;;1.73;0.68;;;18.90;1.00;;;;;;5005558;28;20125;-63
2023/09/14 09:25:22;;;;;;;1.05;0.73;;;19.00;1.00;;;;;;5003909;28;20082;-64
2023/09/14 09:27:56;;;;;;;2.17;0.68;;;18.90;1.00;;;;;;5001569;28;20824;-64
2023/09/14 09:30:28;;;;;;;0.70;0.57;;;19.00;1.00;;;;;;5004095;28;20046;-64
2023/09/14 09:32:55;;;;;;;3.90;0.85;;;19.10;1.00;;;;;;4982569;28;20477;-64
2023/09/14 09:35:23;;;;;;;4.07;0.70;;;19.20;1.00;;;;;;4967935;28;20518;-63
2023/09/14 09:37:50;;;;;;;1.75;0.50;;;19.10;1.00;;;;;;4984912;28;20447;-63
2023/09/14 09:40:18;;;;;;;3.63;0.68;;;18.90;1.00;;;;;;4986208;28;20054;-64
2023/09/14 09:42:44;;;;;;;3.38;1.17;;;18.60;1.00;;;;;;4981479;28;20477;-63
2023/09/14 09:45:11;;;;;;;1.00;0.68;;;18.40;1.00;;;;;;4984350;28;20050;-64
2023/09/14 09:47:37;;;;;;;2.05;0.73;;;18.40;1.00;;;;;;4985239;28;20046;-64
2023/09/14 09:50:07;;;;;;;2.15;0.60;;;18.50;1.00;;;;;;4985982;28;20349;-63
2023/09/14 09:52:34;;;;;;;1.80;0.60;;;18.70;1.00;;;;;;4982327;28;20400;-64
2023/09/14 09:55:00;;;;;;;3.55;0.55;;;19.00;1.00;;;;;;4985340;28;20042;-63
2023/09/14 09:57:32;;;;;;;1.33;0.52;;;19.20;1.00;;;;;;4985832;28;20110;-63
2023/09/14 09:59:58;;;;;;;3.90;0.75;;;19.40;1.00;;;;;;4985476;28;20050;-63
2023/09/14 10:02:31;;;;;;;5.10;0.68;;;19.40;1.00;;;;;;4986501;28;20054;-63
2023/09/14 10:04:58;;;;;;;3.35;1.17;;;19.50;1.00;;;;;;4983767;28;20501;-64
2023/09/14 10:07:24;;;;;;;2.47;0.77;;;19.60;1.00;;;;;;4969153;28;20502;-63
2023/09/14 10:09:55;;;;;;;2.22;0.88;;;19.70;1.00;;;;;;4985137;28;20442;-63
2023/09/14 10:12:26;;;;;;;3.40;0.80;;;19.70;1.00;;;;;;4967350;28;20058;-64
2023/09/14 10:14:55;;;;;;;2.42;0.60;;;19.70;1.00;;;;;;4980781;28;20133;-64
2023/09/14 10:17:28;;;;;;;3.85;0.63;;;19.70;1.00;;;;;;4983500;28;20053;-63
2023/09/14 10:19:55;;;;;;;1.08;0.65;;;19.80;1.00;;;;;;4983089;28;20452;-64
2023/09/14 10:22:22;;;;;;;1.92;0.68;;;20.00;1.00;;;;;;4984825;28;20050;-64
2023/09/14 10:24:50;;;;;;;3.35;0.77;;;20.10;1.00;;;;;;4985610;28;20053;-63
2023/09/14 10:27:16;;;;;;;1.35;0.55;;;20.30;1.00;;;;;;4986112;28;20532;-63
2023/09/14 10:29:43;;;;;;;3.08;0.70;;;20.40;1.00;;;;;;4988349;28;20034;-63
2023/09/14 10:32:11;;;;;;;2.33;0.70;;;20.30;1.00;;;;;;4987623;28;20050;-64
2023/09/14 10:34:41;;;;;;;3.33;0.80;;;20.10;1.00;;;;;;4987915;28;20053;-64
2023/09/14 10:37:10;;;;;;;;;;;19.90;1.00;;;;;;5008094;28;20049;-64
2023/09/14 10:39:37;;;;;;;1.97;0.60;;;20.00;1.00;;;;;;4990099;28;19922;-64
2023/09/14 10:42:04;;;;;;;0.70;0.65;;;20.10;1.00;;;;;;4973084;28;20579;-64
2023/09/14 10:44:31;;;;;;;4.85;0.75;;;20.10;1.00;;;;;;5004453;28;20131;-64
2023/09/14 10:47:00;;;;;;;3.40;0.75;;;19.90;1.00;;;;;;4990472;28;20065;-64
2023/09/14 10:49:35;;;;;;;0.65;0.50;;;19.70;1.00;;;;;;5008116;28;20049;-64
2023/09/14 10:52:02;;;;;;;2.03;1.10;;;19.60;1.00;;;;;;4990325;28;20061;-64
2023/09/14 10:54:30;;;;;;;2.58;0.82;;;19.50;1.00;;;;;;5007073;28;20046;-64
2023/09/14 10:57:01;;;;;;;3.88;0.88;;;19.30;1.00;;;;;;4989897;28;20042;-64
2023/09/14 10:59:51;;;;;;;3.33;0.65;;;19.20;1.00;;;;;;5015365;28;20045;-64
2023/09/14 11:02:35;;;;;;;;;;;19.00;1.00;;;;;;5000721;28;20129;-63
2023/09/14 11:05:11;;;;;;;6.18;0.82;;;18.90;1.00;;;;;;4976997;28;20008;-63
2023/09/14 11:07:37;;;;;;;1.88;0.93;;;18.90;1.00;;;;;;5009764;28;20436;-63
2023/09/14 11:10:05;;;;;;;1.92;0.75;;;18.80;1.00;;;;;;4990387;28;20049;-64
2023/09/14 11:12:30;;;;;;;2.72;0.90;;;18.70;1.00;;;;;;4991615;28;20562;-64
2023/09/14 11:15:16;;;;;;;0.95;0.60;;;18.60;1.00;;;;;;5008599;28;20097;-64
2023/09/14 11:17:46;;;;;;;3.67;0.65;;;18.50;1.00;;;;;;5008179;28;20050;-64
2023/09/14 11:20:27;;;;;;;0.68;0.47;;;18.50;1.00;;;;;;5008355;28;20089;-64
2023/09/14 11:23:00;;;;;;;1.48;0.50;;;18.40;1.00;;;;;;5007551;28;20042;-65
2023/09/14 11:25:28;;;;;;;2.55;0.63;;;18.60;1.00;;;;;;4988498;28;20116;-65
2023/09/14 11:27:55;;;;;;;3.22;0.65;;;18.80;1.00;;;;;;5007068;28;20038;-65
2023/09/14 11:30:24;;;;;;;1.17;0.55;;;19.10;1.00;;;;;;5007173;28;20446;-65
2023/09/14 11:32:54;;;;;;;7.55;0.77;;;19.30;1.00;;;;;;5008322;28;20049;-62
2023/09/14 11:35:39;;;;;;;2.15;0.80;;;19.50;1.00;;;;;;5006396;28;20276;-62
2023/09/14 11:38:22;;;;;;;2.70;0.70;;;19.80;1.00;;;;;;4989490;28;20483;-64
2023/09/14 11:40:48;;;;;;;2.90;0.98;;;20.00;1.00;;;;;;4999646;28;20550;-65
2023/09/14 11:43:21;;;;;;;1.23;0.70;;;20.10;1.00;;;;;;4974356;28;20034;-65
2023/09/14 11:45:55;;;;;;;2.40;0.80;;;20.30;1.00;;;;;;5007504;28;20040;-64
2023/09/14 11:48:23;;;;;;;2.58;0.90;;;20.30;1.00;;;;;;5007132;28;20033;-64
2023/09/14 11:50:50;;;;;;;0.70;0.50;;;20.10;1.00;;;;;;5007396;28;20049;-64
2023/09/14 11:53:18;;;;;;;2.28;0.57;;;19.90;1.00;;;;;;4987269;28;20133;-64
2023/09/14 11:55:51;;;;;;;1.95;0.93;;;19.60;1.00;;;;;;4989852;28;20050;-64
2023/09/14 11:58:17;;;;;;;2.58;0.88;;;19.50;1.00;;;;;;5006777;28;20503;-64
2023/09/14 12:00:48;;;;;;;4.40;0.98;;;19.50;1.00;;;;;;5008011;28;20045;-64
2023/09/14 12:03:14;;;;;;;2.45;0.77;;;19.40;1.00;;;;;;5003055;28;20042;-64
2023/09/14 12:05:40;;;;;;;3.65;0.88;;;19.30;1.00;;;;;;5006779;28;20045;-64
2023/09/14 12:08:10;;;;;;;2.42;0.63;;;19.40;1.00;;;;;;5008563;28;20048;-64
2023/09/14 12:10:37;;;;;;;2.38;0.75;;;19.40;1.00;;;;;;5014872;28;20048;-64
2023/09/14 12:13:14;;;;;;;2.50;0.82;;;19.50;1.00;;;;;;5005628;28;20096;-64
2023/09/14 12:15:43;;;;;;;2.42;0.98;;;19.50;1.00;;;;;;4993535;28;20519;-64
2023/09/14 12:18:10;;;;;;;2.80;1.00;;;19.60;1.00;;;;;;5008265;28;20045;-64
2023/09/14 12:20:41;;;;;;;0.88;0.85;;;19.60;1.00;;;;;;4989493;28;20061;-64
2023/09/14 12:23:08;;;;;;;1.55;0.75;;;19.50;1.00;;;;;;5005996;28;20053;-64
2023/09/14 12:25:35;;;;;;;4.68;1.00;;;19.40;1.00;;;;;;5006076;28;20077;-64
2023/09/14 12:28:03;;;;;;;4.40;0.88;;;19.30;1.00;;;;;;5005591;28;20045;-64
2023/09/14 12:30:30;;;;;;;2.97;0.90;;;19.20;1.00;;;;;;4988354;28;20062;-64
2023/09/14 12:32:56;;;;;;;1.77;1.02;;;19.10;1.00;;;;;;5005196;28;20599;-64
2023/09/14 12:35:24;;;;;;;5.05;1.30;;;19.00;1.00;;;;;;4988313;28;20084;-64
2023/09/14 12:37:59;;;;;;;4.35;1.50;;;19.00;1.00;;;;;;5007024;28;20122;-64
2023/09/14 12:40:25;;;;;;;1.45;0.90;;;19.10;1.00;;;;;;5005433;28;20509;-64
2023/09/14 12:42:51;;;;;;;0.80;0.80;;;19.30;1.00;;;;;;5012239;28;20057;-64
2023/09/14 12:45:19;;;;;;;2.47;1.20;;;19.60;1.00;;;;;;5011550;28;20057;-64
2023/09/14 12:47:46;;;;;;;4.13;1.40;;;19.80;1.00;;;;;;5007649;28;20108;-64
2023/09/14 12:50:21;;;;;;;4.93;1.45;;;20.00;1.00;;;;;;5005784;28;20121;-64
2023/09/14 12:52:49;;;;;;;2.85;1.23;;;20.30;1.00;;;;;;5005685;28;20045;-64